Time;durP1;ratioP1;P1;durP2;ratioP2;P2;SDS_P1;SDS_P2;PMS_P1;PMS_P2;Temp;Humidity;BMP_temperature;BMP_pressure;BME280_temperature;BME280_humidity;BME280_pressure;Samples;Min_cycle;Max_cycle;Signal;HPM_P1;HPM_P2
2022/03/08 00:00:10;;;;;;;8.68;6.40;;;;;;;-1.09;73.76;101620.78;682467;29;1518;-79
2022/03/08 00:00:32;;;;;;;9.65;6.10;;;;;;;-1.10;73.53;101629.25;681228;29;4344;-78
2022/03/08 00:00:53;;;;;;;9.18;6.32;;;;;;;-1.09;73.34;101625.91;683605;28;1130;-78
2022/03/08 00:01:13;;;;;;;8.60;6.15;;;;;;;-1.10;72.51;101629.25;681904;28;3516;-80
2022/03/08 00:01:34;;;;;;;9.27;6.43;;;;;;;-1.05;74.44;101625.28;680939;28;2036;-79
2022/03/08 00:01:54;;;;;;;9.90;6.38;;;;;;;-1.04;71.94;101618.47;681661;29;1418;-79
2022/03/08 00:02:15;;;;;;;8.88;6.18;;;;;;;-1.07;71.11;101620.84;682284;28;1417;-80
2022/03/08 00:02:36;;;;;;;9.00;6.10;;;;;;;-1.09;72.02;101620.78;682534;28;1558;-78
2022/03/08 00:02:57;;;;;;;8.68;6.05;;;;;;;-1.06;71.62;101615.81;682556;28;1282;-79
2022/03/08 00:03:18;;;;;;;8.80;6.18;;;;;;;-1.01;71.33;101618.66;684437;28;5252;-78
2022/03/08 00:03:38;;;;;;;9.05;6.13;;;;;;;-0.96;72.59;101624.91;685373;28;1638;-78
2022/03/08 00:03:59;;;;;;;8.83;6.30;;;;;;;-0.98;73.40;101625.63;680767;28;3095;-78
2022/03/08 00:04:20;;;;;;;8.57;6.10;;;;;;;-1.01;71.20;101617.75;680661;28;2290;-78
2022/03/08 00:04:41;;;;;;;8.55;5.93;;;;;;;-1.02;71.76;101622.03;681943;28;1502;-78
2022/03/08 00:05:01;;;;;;;9.50;6.03;;;;;;;-1.02;71.29;101614.31;683648;28;1241;-79
2022/03/08 00:05:22;;;;;;;8.87;6.13;;;;;;;-1.00;71.72;101620.41;680727;29;1149;-79
2022/03/08 00:05:42;;;;;;;8.27;6.00;;;;;;;-1.01;72.04;101623.78;678198;29;1295;-79
2022/03/08 00:06:03;;;;;;;8.03;5.73;;;;;;;-1.03;70.58;101621.13;678913;29;1754;-79
2022/03/08 00:06:23;;;;;;;9.05;6.05;;;;;;;-1.05;71.90;101616.72;680809;28;4447;-78
2022/03/08 00:06:44;;;;;;;8.57;6.18;;;;;;;-1.05;72.21;101620.16;680358;29;3166;-79
2022/03/08 00:07:05;;;;;;;8.07;5.83;;;;;;;-1.06;71.14;101620.94;681187;29;1637;-78
2022/03/08 00:07:28;;;;;;;8.38;6.03;;;;;;;-1.06;73.17;101623.50;680831;29;1541;-79
2022/03/08 00:07:49;;;;;;;9.43;6.20;;;;;;;-1.04;73.33;101615.91;679098;29;1316;-79
2022/03/08 00:08:10;;;;;;;9.63;6.45;;;;;;;-1.07;74.47;101618.28;678603;29;1570;-79
2022/03/08 00:08:30;;;;;;;8.13;5.97;;;;;;;-1.08;75.24;101617.41;682658;29;1243;-78
2022/03/08 00:08:51;;;;;;;8.60;6.30;;;;;;;-1.04;73.65;101621.03;682608;29;1574;-79
2022/03/08 00:09:11;;;;;;;8.60;6.20;;;;;;;-1.04;73.73;101616.81;680409;28;1340;-79
2022/03/08 00:09:32;;;;;;;9.07;6.30;;;;;;;-1.03;71.88;101623.69;684185;28;4304;-79
2022/03/08 00:09:52;;;;;;;7.70;5.70;;;;;;;-1.05;71.83;101617.59;684706;28;2309;-79
2022/03/08 00:10:14;;;;;;;7.63;5.80;;;;;;;-1.07;71.28;101608.91;684748;28;1292;-79
2022/03/08 00:10:35;;;;;;;8.13;5.93;;;;;;;-1.05;72.29;101607.31;686681;28;1395;-78
2022/03/08 00:10:55;;;;;;;9.18;6.53;;;;;;;-1.00;73.58;101614.41;684247;28;1974;-79
2022/03/08 00:11:16;;;;;;;8.97;6.67;;;;;;;-1.00;72.30;101627.25;685160;28;1431;-78
2022/03/08 00:11:37;;;;;;;9.05;6.30;;;;;;;-0.98;72.26;101613.69;687178;28;982;-79
2022/03/08 00:11:57;;;;;;;8.77;6.00;;;;;;;-0.97;74.17;101614.56;687412;28;1006;-78
2022/03/08 00:12:17;;;;;;;8.18;6.05;;;;;;;-0.95;72.34;101607.84;683669;28;4543;-79
2022/03/08 00:12:38;;;;;;;8.47;6.10;;;;;;;-0.87;71.99;101614.31;684356;28;1654;-78
2022/03/08 00:12:58;;;;;;;9.30;6.23;;;;;;;-0.88;73.72;101617.69;682287;28;1180;-79
2022/03/08 00:13:19;;;;;;;8.77;6.33;;;;;;;-0.92;74.19;101608.03;682204;28;1482;-78
2022/03/08 00:13:39;;;;;;;9.80;6.03;;;;;;;-0.94;71.35;101610.50;678762;29;1275;-78
2022/03/08 00:14:02;;;;;;;9.97;6.07;;;;;;;-0.94;71.44;101619.88;681218;28;1573;-79
2022/03/08 00:14:23;;;;;;;8.94;6.02;;;;;;;-0.98;70.72;101605.09;686011;28;1356;-79
2022/03/08 00:14:43;;;;;;;7.70;5.87;;;;;;;-1.00;71.04;101609.28;682126;28;1083;-80
2022/03/08 00:15:11;;;;;;;8.37;5.90;;;;;;;-1.00;71.81;101610.16;685340;28;1226;-79
2022/03/08 00:15:31;;;;;;;8.77;6.13;;;;;;;-0.98;73.63;101607.66;680799;28;4397;-79
2022/03/08 00:15:52;;;;;;;8.68;5.95;;;;;;;-0.99;71.00;101600.78;681798;28;1434;-79
2022/03/08 00:16:12;;;;;;;8.27;6.13;;;;;;;-0.96;73.88;101608.66;679424;29;1362;-78
2022/03/08 00:16:32;;;;;;;9.52;6.40;;;;;;;-0.95;73.92;101619.00;678996;28;1280;-79
2022/03/08 00:16:55;;;;;;;8.50;5.87;;;;;;;-0.96;72.55;101608.66;679456;29;1142;-80
2022/03/08 00:17:19;;;;;;;9.40;6.10;;;;;;;-0.92;73.37;101626.00;676740;29;1250;-79
2022/03/08 00:17:42;;;;;;;9.65;6.18;;;;;;;-0.97;72.36;101633.44;680146;29;1463;-79
2022/03/08 00:18:04;;;;;;;8.82;6.13;;;;;;;-0.99;72.23;101623.88;678428;29;3175;-79
2022/03/08 00:18:24;;;;;;;7.57;5.78;;;;;;;-1.01;71.51;101603.25;679474;28;4337;-78
2022/03/08 00:18:45;;;;;;;9.00;6.07;;;;;;;-1.04;70.85;101614.22;679850;29;1333;-79
2022/03/08 00:19:06;;;;;;;9.35;6.30;;;;;;;-1.00;70.27;101640.94;679212;29;1310;-78
2022/03/08 00:19:26;;;;;;;8.63;6.10;;;;;;;-0.98;72.69;101605.09;678519;29;1170;-79
2022/03/08 00:19:47;;;;;;;7.63;5.65;;;;;;;-0.96;71.23;101608.66;680741;29;1238;-79
2022/03/08 00:20:08;;;;;;;7.97;6.13;;;;;;;-0.99;72.69;101616.19;679144;29;1073;-79
2022/03/08 00:20:30;;;;;;;8.82;6.30;;;;;;;-1.03;73.27;101626.25;677466;29;1093;-78
2022/03/08 00:20:54;;;;;;;8.00;5.85;;;;;;;-1.00;71.84;101599.00;678371;29;2478;-78
2022/03/08 00:21:18;;;;;;;9.07;6.57;;;;;;;-0.97;73.22;101599.16;679349;28;4321;-78
2022/03/08 00:21:40;;;;;;;8.70;6.38;;;;;;;-0.92;72.12;101615.72;678282;29;1381;-78
2022/03/08 00:22:00;;;;;;;7.97;6.03;;;;;;;-0.89;73.85;101605.63;681689;29;1018;-80
2022/03/08 00:22:21;;;;;;;8.23;5.93;;;;;;;-0.88;71.19;101605.72;676832;29;1208;-79
2022/03/08 00:22:42;;;;;;;9.18;5.95;;;;;;;-0.89;72.57;101600.50;677036;29;975;-79
2022/03/08 00:23:03;;;;;;;9.48;5.90;;;;;;;-0.86;71.95;101610.94;679878;29;1414;-79
2022/03/08 00:23:24;;;;;;;9.70;6.20;;;;;;;-0.88;73.82;101604.84;679829;29;1282;-79
2022/03/08 00:23:45;;;;;;;9.43;6.23;;;;;;;-0.89;72.42;101603.06;680057;29;1896;-79
2022/03/08 00:24:05;;;;;;;9.27;6.10;;;;;;;-0.92;73.84;101605.47;681010;28;2160;-78
2022/03/08 00:24:26;;;;;;;9.57;6.20;;;;;;;-0.92;73.67;101608.03;682965;28;4296;-78
2022/03/08 00:24:46;;;;;;;8.57;6.00;;;;;;;-0.87;72.44;101604.91;683713;28;1306;-79
2022/03/08 00:25:09;;;;;;;9.53;6.20;;;;;;;-0.92;74.79;101601.19;683445;28;1625;-79
2022/03/08 00:25:30;;;;;;;8.88;6.43;;;;;;;-0.87;72.13;101602.34;677791;29;1249;-79
2022/03/08 00:25:50;;;;;;;8.10;6.00;;;;;;;-0.87;74.45;101601.47;678195;29;1222;-79
2022/03/08 00:26:11;;;;;;;8.90;6.40;;;;;;;-0.92;72.83;101605.47;678784;29;943;-79
2022/03/08 00:26:31;;;;;;;8.35;6.03;;;;;;;-0.91;74.94;101599.53;677540;29;3601;-79
2022/03/08 00:26:52;;;;;;;9.70;6.27;;;;;;;-0.93;76.52;101606.25;679438;29;1089;-79
2022/03/08 00:27:12;;;;;;;9.45;6.43;;;;;;;-0.93;74.49;101607.16;682296;28;4328;-78
2022/03/08 00:27:34;;;;;;;8.25;6.30;;;;;;;-0.94;75.43;101600.25;682384;28;1450;-79
2022/03/08 00:27:57;;;;;;;9.15;6.50;;;;;;;-0.95;75.40;101592.47;686652;28;1490;-79
2022/03/08 00:28:18;;;;;;;9.50;6.25;;;;;;;-0.95;75.49;101593.34;682380;28;1105;-79
2022/03/08 00:28:38;;;;;;;9.37;6.30;;;;;;;-0.96;75.59;101600.94;682174;29;1139;-79
2022/03/08 00:29:01;;;;;;;8.60;6.30;;;;;;;-0.99;74.57;101591.38;682298;28;1597;-78
2022/03/08 00:29:22;;;;;;;8.38;6.07;;;;;;;-0.95;74.77;101597.59;681816;28;2965;-78
2022/03/08 00:29:42;;;;;;;8.70;6.03;;;;;;;-0.93;73.79;101595.97;680984;29;4172;-79
2022/03/08 00:30:05;;;;;;;8.87;6.07;;;;;;;-0.92;74.14;101595.19;676217;29;1366;-79
2022/03/08 00:30:27;;;;;;;8.30;5.68;;;;;;;-0.96;71.44;101595.81;678560;29;4296;-79
2022/03/08 00:30:49;;;;;;;7.60;5.80;;;;;;;-0.96;72.60;101595.81;678144;29;1914;-78
2022/03/08 00:31:09;;;;;;;8.00;5.80;;;;;;;-0.97;74.12;101596.59;678715;29;1246;-79
2022/03/08 00:31:30;;;;;;;8.53;6.13;;;;;;;-0.97;73.02;101604.31;677400;29;1047;-79
2022/03/08 00:31:51;;;;;;;8.23;6.40;;;;;;;-0.97;73.33;101594.03;677860;28;1011;-79
2022/03/08 00:32:11;;;;;;;7.83;5.97;;;;;;;-0.96;72.29;101601.81;679939;29;3257;-79
2022/03/08 00:32:31;;;;;;;8.05;5.85;;;;;;;-0.96;72.55;101590.69;677871;29;1323;-78
2022/03/08 00:32:53;;;;;;;7.73;6.07;;;;;;;-0.96;72.21;101588.13;678161;29;1293;-79
2022/03/08 00:33:13;;;;;;;8.52;6.30;;;;;;;-0.95;71.78;101595.91;671443;29;4370;-78
2022/03/08 00:33:34;;;;;;;8.77;6.20;;;;;;;-0.90;71.11;101593.59;675158;29;1457;-78
2022/03/08 00:33:56;;;;;;;7.90;5.80;;;;;;;-0.90;71.04;101599.63;678947;29;1522;-78
2022/03/08 00:34:16;;;;;;;8.27;5.90;;;;;;;-0.87;70.53;101589.53;676961;29;1721;-79
2022/03/08 00:34:37;;;;;;;8.17;6.10;;;;;;;-0.87;72.32;101593.78;678246;29;1218;-78
2022/03/08 00:34:58;;;;;;;7.82;6.05;;;;;;;-0.89;71.38;101592.78;678645;29;3628;-79
2022/03/08 00:35:20;;;;;;;8.70;5.80;;;;;;;-0.89;70.69;101585.09;675225;29;2021;-79
2022/03/08 00:35:40;;;;;;;8.48;5.97;;;;;;;-0.90;71.08;101596.16;677549;29;1455;-79
2022/03/08 00:36:01;;;;;;;8.30;5.90;;;;;;;-0.89;70.24;101592.78;677195;29;1232;-79
2022/03/08 00:36:22;;;;;;;7.78;5.80;;;;;;;-0.89;70.18;101597.94;677146;29;4290;-78
2022/03/08 00:36:42;;;;;;;7.97;5.93;;;;;;;-0.88;70.78;101599.72;679577;29;1398;-79
2022/03/08 00:37:03;;;;;;;8.18;5.90;;;;;;;-0.87;71.07;101598.91;679914;29;1199;-79
2022/03/08 00:37:24;;;;;;;7.88;5.82;;;;;;;-0.90;70.73;101607.31;679658;29;1277;-79
2022/03/08 00:37:47;;;;;;;8.23;6.15;;;;;;;-0.87;70.22;101593.78;681799;29;3397;-79
2022/03/08 00:38:08;;;;;;;9.35;6.18;;;;;;;-0.90;70.67;101602.19;680957;28;3531;-78
2022/03/08 00:38:28;;;;;;;8.07;6.00;;;;;;;-0.93;70.51;101590.84;678730;29;1652;-78
2022/03/08 00:38:49;;;;;;;7.77;6.00;;;;;;;-0.90;70.80;101596.16;682206;28;1386;-78
2022/03/08 00:39:09;;;;;;;8.30;6.07;;;;;;;-0.92;72.46;101608.91;681928;28;1495;-78
2022/03/08 00:39:30;;;;;;;8.60;6.20;;;;;;;-0.89;71.24;101600.50;680349;29;4442;-79
2022/03/08 00:39:50;;;;;;;9.17;6.40;;;;;;;-0.89;71.22;101595.34;680746;28;1186;-79
2022/03/08 00:40:11;;;;;;;9.30;6.55;;;;;;;-0.90;70.69;101589.34;682514;28;1442;-79
2022/03/08 00:40:33;;;;;;;9.02;6.40;;;;;;;-0.90;71.45;101598.72;682921;28;867;-79
2022/03/08 00:40:54;;;;;;;9.05;6.38;;;;;;;-0.89;71.21;101603.06;682079;28;1277;-79
2022/03/08 00:41:14;;;;;;;9.60;6.20;;;;;;;-0.90;73.48;101593.59;684044;28;1332;-79
2022/03/08 00:41:37;;;;;;;8.68;6.00;;;;;;;-0.88;70.94;101600.56;681547;29;1507;-79
2022/03/08 00:41:57;;;;;;;8.63;5.90;;;;;;;-0.87;70.75;101606.63;683713;28;1362;-79
2022/03/08 00:42:18;;;;;;;8.20;5.87;;;;;;;-0.87;70.44;101586.94;683458;28;4343;-79
2022/03/08 00:42:38;;;;;;;8.20;5.45;;;;;;;-0.84;70.81;101601.66;682005;29;1725;-79
2022/03/08 00:42:59;;;;;;;8.32;5.80;;;;;;;-0.80;69.49;101583.06;682168;29;935;-79
2022/03/08 00:43:20;;;;;;;7.78;5.95;;;;;;;-0.70;70.07;101580.19;682491;28;1168;-79
2022/03/08 00:43:40;;;;;;;7.63;5.93;;;;;;;-0.69;69.71;101592.22;682131;28;3215;-78
2022/03/08 00:44:01;;;;;;;8.32;5.90;;;;;;;-0.70;69.91;101585.31;679477;29;1402;-78
2022/03/08 00:44:22;;;;;;;8.48;6.00;;;;;;;-0.67;69.54;101610.28;676681;29;3684;-79
2022/03/08 00:44:44;;;;;;;9.05;6.18;;;;;;;-0.65;69.47;101602.66;679775;29;1433;-78
2022/03/08 00:45:07;;;;;;;8.55;6.32;;;;;;;-0.65;69.96;101587.25;684425;28;1127;-79
2022/03/08 00:45:28;;;;;;;8.80;6.25;;;;;;;-0.64;69.33;101613.03;681032;28;4337;-78
2022/03/08 00:45:48;;;;;;;8.57;6.35;;;;;;;-0.63;68.78;101585.69;681543;29;1388;-79
2022/03/08 00:46:09;;;;;;;8.13;5.97;;;;;;;-0.60;68.35;101596.13;679319;28;1473;-80
2022/03/08 00:46:29;;;;;;;8.10;6.10;;;;;;;-0.63;68.71;101609.66;679565;29;3124;-79
2022/03/08 00:46:50;;;;;;;8.75;6.22;;;;;;;-0.62;69.38;101610.53;683051;28;1684;-81
2022/03/08 00:47:11;;;;;;;9.30;6.43;;;;;;;-0.60;68.74;101593.53;681834;28;4731;-79
2022/03/08 00:47:35;;;;;;;8.45;6.18;;;;;;;-0.60;68.34;101606.38;683044;28;1437;-79
2022/03/08 00:47:58;;;;;;;7.32;5.70;;;;;;;-0.63;68.59;101601.97;679746;29;1168;-80
2022/03/08 00:48:19;;;;;;;8.05;6.05;;;;;;;-0.60;70.34;101606.38;678512;29;4344;-79
2022/03/08 00:48:40;;;;;;;8.10;6.05;;;;;;;-0.59;68.62;101579.91;679647;29;1011;-79
2022/03/08 00:49:01;;;;;;;8.65;5.97;;;;;;;-0.57;69.13;101578.28;679195;29;1015;-78
2022/03/08 00:49:22;;;;;;;8.18;5.90;;;;;;;-0.57;68.74;101591.16;676184;29;4168;-79
2022/03/08 00:49:42;;;;;;;8.48;6.18;;;;;;;-0.57;68.76;101578.28;674608;29;1519;-79
2022/03/08 00:50:06;;;;;;;8.10;5.95;;;;;;;-0.58;70.12;101590.28;676644;29;4720;-79
2022/03/08 00:50:29;;;;;;;7.90;5.88;;;;;;;-0.59;68.52;101585.06;679212;29;1358;-78
2022/03/08 00:50:49;;;;;;;7.93;6.13;;;;;;;-0.57;68.11;101588.56;679150;29;1910;-79
2022/03/08 00:51:11;;;;;;;8.73;6.30;;;;;;;-0.56;69.08;101585.22;679535;29;1404;-78
2022/03/08 00:51:31;;;;;;;8.70;6.18;;;;;;;-0.55;68.17;101594.69;677293;29;4315;-79
2022/03/08 00:51:52;;;;;;;9.30;6.20;;;;;;;-0.56;67.86;101603.19;678166;29;1431;-79
2022/03/08 00:52:12;;;;;;;7.83;5.97;;;;;;;-0.55;67.29;101605.84;680042;29;3910;-80
2022/03/08 00:52:33;;;;;;;7.88;6.00;;;;;;;-0.53;67.72;101577.66;681122;28;1466;-78
2022/03/08 00:52:55;;;;;;;7.85;6.07;;;;;;;-0.52;68.04;101576.88;679060;29;1465;-79
2022/03/08 00:53:16;;;;;;;8.60;5.85;;;;;;;-0.50;67.70;101582.09;678304;29;1535;-79
2022/03/08 00:53:37;;;;;;;8.02;5.80;;;;;;;-0.51;68.27;101591.50;679579;29;891;-79
2022/03/08 00:53:57;;;;;;;8.32;5.95;;;;;;;-0.50;68.67;101582.97;680337;29;1432;-79
2022/03/08 00:54:18;;;;;;;9.17;6.00;;;;;;;-0.50;70.46;101582.97;683800;28;4338;-79
2022/03/08 00:54:39;;;;;;;8.93;6.03;;;;;;;-0.52;69.33;101593.16;679655;29;1435;-78
2022/03/08 00:54:59;;;;;;;9.20;6.25;;;;;;;-0.51;69.45;101591.50;679568;29;2529;-79
2022/03/08 00:55:22;;;;;;;7.60;5.80;;;;;;;-0.53;68.75;101582.81;683707;28;4209;-81
2022/03/08 00:55:44;;;;;;;8.43;6.20;;;;;;;-0.56;69.37;101572.38;684943;28;1236;-81
2022/03/08 00:56:05;;;;;;;7.93;5.97;;;;;;;-0.54;67.83;101581.03;683287;28;1602;-78
2022/03/08 00:56:25;;;;;;;7.88;5.78;;;;;;;-0.51;69.18;101596.63;684533;28;1176;-79
2022/03/08 00:56:46;;;;;;;8.20;5.88;;;;;;;-0.51;69.18;101581.22;677648;29;1436;-79
2022/03/08 00:57:06;;;;;;;8.20;6.30;;;;;;;-0.52;68.61;101575.19;676754;29;1748;-78
2022/03/08 00:57:27;;;;;;;8.25;6.18;;;;;;;-0.51;69.63;101581.22;678990;29;4470;-79
2022/03/08 00:57:48;;;;;;;8.50;6.07;;;;;;;-0.50;68.02;101582.97;681693;28;3283;-79
2022/03/08 00:58:11;;;;;;;7.85;5.85;;;;;;;-0.52;69.21;101589.72;683022;28;1378;-79
2022/03/08 00:58:31;;;;;;;8.00;5.97;;;;;;;-0.50;69.06;101574.38;681689;28;1312;-79
2022/03/08 00:58:52;;;;;;;8.60;5.93;;;;;;;-0.52;69.44;101575.19;679393;28;1364;-79
2022/03/08 00:59:12;;;;;;;8.98;6.00;;;;;;;-0.49;68.40;101577.03;683660;28;1150;-79
2022/03/08 00:59:34;;;;;;;7.40;5.65;;;;;;;-0.48;67.62;101571.09;681101;29;1233;-79
2022/03/08 00:59:56;;;;;;;7.93;5.82;;;;;;;-0.49;68.16;101579.59;678187;29;1779;-79
2022/03/08 01:00:19;;;;;;;8.65;5.82;;;;;;;-0.49;67.52;101569.34;674779;29;4378;-79
2022/03/08 01:00:41;;;;;;;7.93;5.72;;;;;;;-0.47;67.08;101569.41;682489;28;1347;-78
2022/03/08 01:01:01;;;;;;;9.05;6.00;;;;;;;-0.49;68.93;101571.91;681419;28;2299;-79
2022/03/08 01:01:22;;;;;;;8.35;5.90;;;;;;;-0.41;67.92;101568.06;682562;28;1787;-78
2022/03/08 01:01:42;;;;;;;8.00;5.90;;;;;;;-0.41;68.33;101567.19;680158;29;1528;-79
2022/03/08 01:02:03;;;;;;;8.75;5.97;;;;;;;-0.43;68.11;101569.69;676882;29;1658;-79
2022/03/08 01:02:24;;;;;;;8.30;5.82;;;;;;;-0.42;67.19;101566.28;679091;29;1178;-78
2022/03/08 01:02:44;;;;;;;8.73;6.00;;;;;;;-0.40;68.20;101571.50;677587;29;1138;-78
2022/03/08 01:03:05;;;;;;;7.70;5.63;;;;;;;-0.30;67.82;101565.22;679526;29;1507;-79
2022/03/08 01:03:26;;;;;;;8.30;5.68;;;;;;;-0.21;66.24;101568.25;677632;29;4342;-79
2022/03/08 01:03:46;;;;;;;8.50;5.90;;;;;;;-0.18;65.94;101566.75;677308;29;3923;-79
2022/03/08 01:04:07;;;;;;;7.70;5.47;;;;;;;-0.18;65.65;101569.31;676874;29;1346;-79
2022/03/08 01:04:27;;;;;;;9.00;6.03;;;;;;;-0.20;65.81;101575.16;676535;29;1263;-81
2022/03/08 01:04:48;;;;;;;9.02;6.20;;;;;;;-0.22;67.08;101566.50;677544;29;1532;-81
2022/03/08 01:05:08;;;;;;;8.13;6.07;;;;;;;-0.21;66.10;101566.59;680828;29;1474;-79
2022/03/08 01:05:30;;;;;;;8.50;6.03;;;;;;;-0.09;64.69;101568.91;684563;28;1476;-79
2022/03/08 01:05:51;;;;;;;8.20;5.95;;;;;;;0.02;64.21;101584.03;683840;28;1554;-80
2022/03/08 01:06:13;;;;;;;8.77;5.90;;;;;;;0.03;64.19;101554.94;681836;28;4411;-80
2022/03/08 01:06:35;;;;;;;8.55;5.78;;;;;;;0.07;63.85;101560.34;678957;29;3593;-79
2022/03/08 01:06:55;;;;;;;7.80;5.68;;;;;;;0.07;63.62;101564.56;678981;29;1477;-79
2022/03/08 01:07:17;;;;;;;7.70;5.87;;;;;;;0.04;64.43;101551.56;678803;29;1416;-79
2022/03/08 01:07:38;;;;;;;8.57;6.18;;;;;;;-0.01;65.80;101571.91;680260;29;1496;-80
2022/03/08 01:08:00;;;;;;;8.60;6.40;;;;;;;-0.06;66.48;101551.06;683081;28;1388;-79
2022/03/08 01:08:21;;;;;;;8.25;6.07;;;;;;;-0.05;65.16;101583.69;684895;28;1400;-79
2022/03/08 01:08:41;;;;;;;8.13;5.90;;;;;;;-0.08;65.10;101569.81;681782;28;1439;-78
2022/03/08 01:09:03;;;;;;;8.98;6.20;;;;;;;-0.11;64.92;101557.69;681603;29;3160;-79
2022/03/08 01:09:24;;;;;;;8.32;6.05;;;;;;;-0.12;66.53;101557.59;680174;28;4313;-79
2022/03/08 01:09:44;;;;;;;7.80;5.70;;;;;;;-0.13;66.73;101573.81;681509;29;3818;-79
2022/03/08 01:10:07;;;;;;;7.53;5.60;;;;;;;-0.16;67.93;101555.66;681756;29;1827;-81
2022/03/08 01:10:28;;;;;;;8.38;5.70;;;;;;;-0.23;66.24;101552.75;681938;28;1384;-79
2022/03/08 01:10:50;;;;;;;8.63;5.70;;;;;;;-0.27;66.31;101555.09;676439;29;1923;-78
2022/03/08 01:11:10;;;;;;;7.78;5.80;;;;;;;-0.29;67.92;101552.44;679381;29;1655;-78
2022/03/08 01:11:31;;;;;;;8.17;6.00;;;;;;;-0.29;66.50;101547.31;681991;29;1838;-79
2022/03/08 01:11:52;;;;;;;9.02;6.07;;;;;;;-0.28;66.52;101564.47;682393;28;1975;-79
2022/03/08 01:12:13;;;;;;;8.35;5.82;;;;;;;-0.31;66.61;101558.28;680395;28;4355;-78
2022/03/08 01:12:34;;;;;;;9.33;6.10;;;;;;;-0.31;66.10;101553.16;683275;28;3981;-79
2022/03/08 01:12:55;;;;;;;8.77;5.60;;;;;;;-0.27;65.81;101555.09;682034;28;1620;-78
2022/03/08 01:13:16;;;;;;;7.80;5.60;;;;;;;-0.23;65.72;101562.16;682089;28;1429;-80
2022/03/08 01:13:37;;;;;;;8.02;5.72;;;;;;;-0.24;66.63;101556.13;682389;29;1222;-78
2022/03/08 01:13:58;;;;;;;8.20;5.50;;;;;;;-0.23;67.64;101557.03;682062;29;1329;-79
2022/03/08 01:14:18;;;;;;;8.02;5.85;;;;;;;-0.29;67.40;101551.53;680898;28;1138;-79
2022/03/08 01:14:39;;;;;;;9.27;5.90;;;;;;;-0.30;66.84;101549.78;679798;29;1436;-79
2022/03/08 01:15:01;;;;;;;8.90;5.88;;;;;;;-0.31;66.03;101556.59;679472;29;3988;-79
2022/03/08 01:15:24;;;;;;;7.45;5.88;;;;;;;-0.31;66.40;101548.88;675681;29;4348;-79
2022/03/08 01:15:44;;;;;;;7.65;5.70;;;;;;;-0.30;66.22;101549.78;682449;28;1247;-79
2022/03/08 01:16:05;;;;;;;8.45;5.88;;;;;;;-0.32;66.59;101566.78;683685;28;1361;-79
2022/03/08 01:16:26;;;;;;;8.80;6.15;;;;;;;-0.29;66.63;101552.44;679133;29;1250;-80
2022/03/08 01:16:47;;;;;;;7.72;5.80;;;;;;;-0.30;68.15;101566.09;679937;29;1277;-78
2022/03/08 01:17:09;;;;;;;8.45;6.05;;;;;;;-0.29;66.82;101557.59;675362;29;1428;-79
2022/03/08 01:17:30;;;;;;;8.27;5.97;;;;;;;-0.29;66.39;101552.44;678711;29;3094;-79
2022/03/08 01:17:51;;;;;;;8.60;6.30;;;;;;;-0.28;65.99;101554.19;679923;29;1632;-79
2022/03/08 01:18:12;;;;;;;7.65;5.93;;;;;;;-0.27;65.96;101555.09;679020;29;3925;-79
2022/03/08 01:18:32;;;;;;;8.20;6.13;;;;;;;-0.27;67.14;101555.09;680824;29;4395;-79
2022/03/08 01:18:52;;;;;;;8.63;6.30;;;;;;;-0.28;66.81;101550.75;681446;29;1504;-79
2022/03/08 01:19:13;;;;;;;7.23;5.97;;;;;;;-0.29;67.23;101557.59;681804;28;1381;-79
2022/03/08 01:19:33;;;;;;;7.53;6.00;;;;;;;-0.29;66.55;101554.09;681635;28;1234;-78
2022/03/08 01:19:54;;;;;;;7.63;5.93;;;;;;;-0.29;66.29;101561.81;677146;29;1708;-79
2022/03/08 01:20:16;;;;;;;8.50;5.78;;;;;;;-0.29;66.52;101554.09;680558;28;1304;-80
2022/03/08 01:20:37;;;;;;;8.63;5.87;;;;;;;-0.30;66.83;101565.22;681557;29;4235;-79
2022/03/08 01:20:58;;;;;;;8.27;5.97;;;;;;;-0.31;66.75;101556.59;679900;29;1463;-79
2022/03/08 01:21:19;;;;;;;8.05;5.70;;;;;;;-0.30;66.50;101560.94;676204;29;4363;-79
2022/03/08 01:21:39;;;;;;;7.47;5.77;;;;;;;-0.20;66.67;101562.31;676596;29;1521;-79
2022/03/08 01:21:59;;;;;;;8.02;6.22;;;;;;;-0.21;66.23;101557.97;678698;29;1512;-80
2022/03/08 01:22:22;;;;;;;8.15;5.88;;;;;;;-0.20;65.90;101557.19;681253;28;1416;-79
2022/03/08 01:22:42;;;;;;;8.97;6.27;;;;;;;-0.20;65.60;101567.47;680088;29;1269;-79
2022/03/08 01:23:03;;;;;;;8.65;6.25;;;;;;;-0.20;65.35;101564.88;680800;29;1217;-79
2022/03/08 01:23:23;;;;;;;9.05;6.05;;;;;;;-0.19;65.30;101564.97;678605;28;3358;-79
2022/03/08 01:23:44;;;;;;;8.77;5.97;;;;;;;-0.18;65.60;101563.28;681155;28;1564;-78
2022/03/08 01:24:05;;;;;;;7.80;5.70;;;;;;;-0.19;65.52;101569.22;682080;28;4242;-81
2022/03/08 01:24:26;;;;;;;7.22;5.68;;;;;;;-0.18;65.33;101565.84;671118;28;4360;-79
2022/03/08 01:24:46;;;;;;;7.15;5.65;;;;;;;-0.18;65.75;101563.28;685478;28;986;-79
2022/03/08 01:25:08;;;;;;;7.40;6.10;;;;;;;-0.18;65.59;101560.69;681978;28;1455;-79
2022/03/08 01:25:30;;;;;;;7.80;6.03;;;;;;;-0.19;65.96;101566.66;678209;29;1504;-80
2022/03/08 01:25:50;;;;;;;7.47;5.90;;;;;;;-0.20;65.93;101564.88;678670;29;1370;-80
2022/03/08 01:26:11;;;;;;;7.43;5.90;;;;;;;-0.20;65.83;101560.63;678557;29;2260;-78
2022/03/08 01:26:32;;;;;;;7.55;5.72;;;;;;;-0.19;65.08;101564.09;678126;29;1273;-79
2022/03/08 01:26:52;;;;;;;7.37;5.40;;;;;;;-0.20;66.02;101564.88;677698;29;1180;-79
2022/03/08 01:27:13;;;;;;;8.27;5.87;;;;;;;-0.21;65.10;101560.53;680668;28;5118;-79
2022/03/08 01:27:33;;;;;;;7.82;5.75;;;;;;;-0.21;66.46;101558.88;680595;28;1185;-80
2022/03/08 01:27:54;;;;;;;7.77;5.90;;;;;;;-0.22;66.27;101564.81;684593;28;1261;-78
2022/03/08 01:28:15;;;;;;;8.05;5.78;;;;;;;-0.23;65.82;101567.31;681674;28;1390;-78
2022/03/08 01:28:38;;;;;;;8.20;5.93;;;;;;;-0.22;65.46;101559.66;678767;29;1213;-79
2022/03/08 01:28:58;;;;;;;8.02;5.78;;;;;;;-0.21;65.16;101565.69;683621;28;1787;-78
2022/03/08 01:29:19;;;;;;;7.13;5.78;;;;;;;-0.20;65.71;101572.59;683654;28;1826;-78
2022/03/08 01:29:40;;;;;;;8.02;6.00;;;;;;;-0.19;65.02;101553.81;681381;29;1292;-78
2022/03/08 01:30:01;;;;;;;7.50;5.63;;;;;;;-0.22;65.85;101553.66;680346;29;1422;-78
2022/03/08 01:30:24;;;;;;;7.63;5.85;;;;;;;-0.23;65.83;101557.03;678693;29;4371;-78
2022/03/08 01:30:44;;;;;;;8.38;5.75;;;;;;;-0.23;65.30;101562.16;677372;29;1321;-78
2022/03/08 01:31:05;;;;;;;8.77;6.05;;;;;;;-0.23;65.55;101551.88;679491;29;1903;-77
2022/03/08 01:31:25;;;;;;;7.23;5.77;;;;;;;-0.27;65.46;101557.66;677736;29;1410;-78
2022/03/08 01:31:45;;;;;;;9.13;5.90;;;;;;;-0.29;65.20;101551.53;681570;28;1843;-79
2022/03/08 01:32:08;;;;;;;9.23;5.97;;;;;;;-0.30;65.56;101549.78;681631;28;1459;-80
2022/03/08 01:32:28;;;;;;;8.65;5.97;;;;;;;-0.30;65.47;101557.50;678292;29;2165;-78
2022/03/08 01:32:49;;;;;;;7.63;6.03;;;;;;;-0.30;65.22;101554.94;681439;29;1292;-80
2022/03/08 01:33:12;;;;;;;8.93;6.30;;;;;;;-0.30;64.92;101558.38;682000;29;1679;-78
2022/03/08 01:33:34;;;;;;;8.98;6.00;;;;;;;-0.29;65.59;101559.25;681402;29;5110;-78
2022/03/08 01:33:57;;;;;;;7.95;5.72;;;;;;;-0.29;64.89;101543.81;682061;28;1018;-78
2022/03/08 01:34:17;;;;;;;8.20;5.57;;;;;;;-0.29;65.79;101556.69;681941;28;1110;-78
2022/03/08 01:34:38;;;;;;;7.65;5.70;;;;;;;-0.29;66.52;101559.25;681868;28;3831;-78
2022/03/08 01:34:59;;;;;;;7.85;5.50;;;;;;;-0.26;65.79;101556.88;682849;28;2459;-78
2022/03/08 01:35:20;;;;;;;7.97;5.70;;;;;;;-0.19;65.14;101556.38;684796;28;1726;-78
2022/03/08 01:35:40;;;;;;;7.72;5.85;;;;;;;-0.19;64.58;101552.13;684385;28;1141;-78
2022/03/08 01:36:01;;;;;;;7.67;5.60;;;;;;;-0.20;65.03;101552.03;682334;29;1245;-79
2022/03/08 01:36:23;;;;;;;7.65;5.70;;;;;;;-0.22;65.90;101557.09;681360;28;4415;-78
2022/03/08 01:36:44;;;;;;;7.60;5.82;;;;;;;-0.24;65.21;101555.25;680774;28;1550;-77
2022/03/08 01:37:05;;;;;;;7.77;5.77;;;;;;;-0.26;65.19;101556.88;679913;29;1190;-78
2022/03/08 01:37:25;;;;;;;7.40;5.55;;;;;;;-0.25;65.11;101553.47;681076;28;4009;-79
2022/03/08 01:37:47;;;;;;;7.40;5.80;;;;;;;-0.27;65.20;101560.22;678201;29;1978;-78
2022/03/08 01:38:08;;;;;;;7.30;5.55;;;;;;;-0.29;65.45;101552.44;676021;29;1219;-78
2022/03/08 01:38:28;;;;;;;7.37;5.70;;;;;;;-0.27;64.47;101555.09;677915;29;2071;-78
2022/03/08 01:38:50;;;;;;;8.32;5.88;;;;;;;-0.29;65.88;101548.97;682479;29;1681;-78
2022/03/08 01:39:11;;;;;;;8.30;5.70;;;;;;;-0.32;65.57;101557.38;679932;29;1008;-78
2022/03/08 01:39:31;;;;;;;8.27;5.83;;;;;;;-0.31;65.21;101558.28;678758;29;4282;-78
2022/03/08 01:39:52;;;;;;;7.83;5.70;;;;;;;-0.33;67.45;101559.88;678903;29;1209;-79
2022/03/08 01:40:15;;;;;;;8.50;6.03;;;;;;;-0.33;67.07;101554.75;678992;29;3361;-79